Novaya Igirma, Russia
Current Conditions -  °F | °C
As of 12:00 PM on Friday 28 Nov 2014 (Local Time) from UIBB Reporting Station
Broken Clouds Broken Clouds  
Wind Chill: -8°   Ceiling: 10000
Heat Index:   Visibility: 6mi
Dew Point:   Wind: 11mph
Humidity: 79%   Direction: 270°W
Pressure: 29.83"   Gusts: NA
Location:  57.14°N, 103.91°E
Report Text: UIBB 280400Z 27005MPS 9999 FEW020CB BKN100 M14/M17 Q1010 NOSIGRMK QFE714/0952 30490140
Loading
Personal Weather Stations






























Interactive Weather Map New forecast layout! Learn more

10-Day Weather Forecast

Advertisements
Track Severe Weather on mobile